Погода Зейтунна неделю

Аура, Мальта

19 - 25 июля
  • 19июля
    Сегодня
    +26°
    +36°
    Ясно и безоблачно
    ВремяПогодаТемператураВлажностьДавлениеВетер, м/сВероятность осадков
    02:00Ясно и безоблачно+28°C64 %756 мм2.6 м/с2 %
    05:00Ясно и безоблачно+27°C71 %756 мм3.1 м/с2 %
    08:00Ясно и безоблачно+31°C72 %756 мм3.0 м/с2 %
    11:00Ясно и безоблачно+35°C45 %756 мм3.8 м/с2 %
    14:00Ясно и безоблачно+35°C51 %756 мм3.3 м/с2 %
    17:00Ясно и безоблачно+35°C51 %755 мм3.4 м/с2 %
    20:00Ясно и безоблачно+31°C60 %754 мм2.8 м/с2 %
    23:00Ясно и безоблачно+28°C75 %755 мм2.3 м/с2 %
  • 20июля
    Суббота
    +26°
    +34°
    Ясно и безоблачно
    ВремяПогодаТемператураВлажностьДавлениеВетер, м/сВероятность осадков
    02:00Ясно и безоблачно+27°C89 %754 мм2.6 м/с2 %
    05:00Ясно и безоблачно+27°C90 %753 мм3.0 м/с2 %
    08:00Ясно и безоблачно+30°C80 %753 мм4.0 м/с2 %
    11:00Ясно и безоблачно+33°C61 %754 мм5.4 м/с2 %
    14:00Ясно и безоблачно+34°C55 %753 мм5.5 м/с2 %
    17:00Ясно и безоблачно+33°C56 %752 мм5.8 м/с2 %
    20:00Ясно и безоблачно+30°C69 %752 мм4.3 м/с2 %
    23:00Ясно и безоблачно+27°C74 %752 мм3.3 м/с2 %
  • 21июля
    Воскресенье
    +25°
    +36°
    Ясно и безоблачно
    ВремяПогодаТемператураВлажностьДавлениеВетер, м/сВероятность осадков
    02:00Ясно и безоблачно+26°C87 %752 мм3.1 м/с2 %
    05:00Ясно и безоблачно+26°C89 %752 мм3.0 м/с2 %
    08:00Ясно и безоблачно+30°C81 %753 мм4.0 м/с2 %
    11:00Ясно и безоблачно+33°C54 %753 мм3.6 м/с2 %
    14:00Ясно и безоблачно+35°C50 %753 мм5.2 м/с2 %
    17:00Ясно и безоблачно+34°C44 %752 мм5.7 м/с2 %
    20:00Ясно и безоблачно+31°C59 %752 мм3.5 м/с2 %
    23:00Ясно и безоблачно+28°C67 %753 мм2.0 м/с2 %
  • 22июля
    Понедельник
    +24°
    +32°
    Ясно и безоблачно
    ВремяПогодаТемператураВлажностьДавлениеВетер, м/сВероятность осадков
    02:00Ясно и безоблачно+27°C81 %752 мм2.4 м/с2 %
    05:00Ясно и безоблачно+26°C81 %752 мм2.0 м/с2 %
    08:00Ясно и безоблачно+30°C70 %753 мм4.8 м/с2 %
    11:00Ясно и безоблачно+31°C69 %754 мм7.3 м/с2 %
    14:00Ясно и безоблачно+31°C64 %754 мм8.2 м/с2 %
    17:00Ясно и безоблачно+30°C55 %753 мм8.4 м/с2 %
    20:00Ясно и безоблачно+27°C73 %753 мм7.8 м/с2 %
    23:00Ясно и безоблачно+26°C79 %754 мм7.3 м/с2 %
  • 23июля
    Вторник
    +24°
    +32°
    Ясно и безоблачно
    ВремяПогодаТемператураВлажностьДавлениеВетер, м/сВероятность осадков
    02:00Ясно и безоблачно+25°C84 %754 мм6.6 м/с2 %
    05:00Ясно и безоблачно+25°C88 %753 мм6.1 м/с2 %
    08:00Ясно и безоблачно+28°C81 %754 мм6.3 м/с2 %
    11:00Ясно и безоблачно+30°C70 %755 мм7.0 м/с2 %
    14:00Ясно и безоблачно+31°C66 %754 мм7.0 м/с2 %
    17:00Ясно и безоблачно+30°C70 %754 мм7.1 м/с2 %
    20:00Ясно и безоблачно+28°C79 %754 мм5.7 м/с2 %
    23:00Ясно и безоблачно+27°C82 %754 мм5.4 м/с2 %
Мы используем cookies
Соглашаюсь